Winton Post Office, Australia
Current Conditions -  °F | °C
As of 11:00 PM on Sunday 21 Dec 2014 (Local Time) from YLRE Reporting Station
Clear Clear  
Wind Chill: 28°   Ceiling: Unl
Heat Index: 28°   Visibility: 6mi
Dew Point:   Wind: 9mph
Humidity: 28%   Direction: 50°NE
Pressure: 29.85"   Gusts: NA
Location:  22.38°S, 143.03°E
Report Text: YLRE 211300Z AUTO 05008KT 9999 // NCD 28/08 Q1011
Loading
Personal Weather Stations






























Interactive Weather Map New forecast layout! Learn more

10-Day Weather Forecast

Advertisements
Track Severe Weather on mobile